createdAt,value
2022-12-03T00:02:16.598Z,8.55
2022-12-03T00:04:45.842Z,13.73
2022-12-03T00:07:12.456Z,14.45
2022-12-03T00:09:40.311Z,11.63
2022-12-03T00:12:07.227Z,8.07
2022-12-03T00:14:33.813Z,11.07
2022-12-03T00:17:01.448Z,13.95
2022-12-03T00:19:28.400Z,9.68
2022-12-03T00:21:56.393Z,9.23
2022-12-03T00:24:22.988Z,14.68
2022-12-03T00:26:49.623Z,9.45
2022-12-03T00:29:17.727Z,14.43
2022-12-03T00:31:45.657Z,13.20
2022-12-03T00:34:12.561Z,14.82
2022-12-03T00:36:39.176Z,11.77
2022-12-03T00:39:05.837Z,15.57
2022-12-03T00:41:32.419Z,13.48
2022-12-03T00:43:59.138Z,6.50
2022-12-03T00:46:26.117Z,10.00
2022-12-03T00:48:53.393Z,15.30
2022-12-03T00:51:22.634Z,15.63
2022-12-03T00:53:52.676Z,10.95
2022-12-03T00:56:19.257Z,14.68
2022-12-03T00:58:48.566Z,8.05
2022-12-03T01:01:15.216Z,7.80
2022-12-03T01:03:41.871Z,16.77
2022-12-03T01:06:08.599Z,14.40
2022-12-03T01:08:35.363Z,16.48
2022-12-03T01:11:03.245Z,11.40
2022-12-03T01:13:29.966Z,14.35
2022-12-03T01:15:56.642Z,12.88
2022-12-03T01:18:23.568Z,15.82
2022-12-03T01:20:50.147Z,16.25
2022-12-03T01:23:16.784Z,14.48
2022-12-03T01:25:43.358Z,16.77
2022-12-03T01:28:09.951Z,17.48
2022-12-03T01:30:57.656Z,11.20
2022-12-03T01:33:24.253Z,11.55
2022-12-03T01:35:50.988Z,10.65
2022-12-03T01:38:17.530Z,12.07
2022-12-03T01:40:44.241Z,15.40
2022-12-03T01:43:13.673Z,15.35
2022-12-03T01:45:41.755Z,15.30
2022-12-03T01:48:12.581Z,8.52
2022-12-03T01:50:39.206Z,13.57
2022-12-03T01:53:05.932Z,14.13
2022-12-03T01:55:32.754Z,12.45
2022-12-03T01:58:01.134Z,9.82
2022-12-03T02:00:29.290Z,10.90
2022-12-03T02:03:02.266Z,13.95
2022-12-03T02:05:31.476Z,12.18
2022-12-03T02:07:59.464Z,9.73
2022-12-03T02:10:35.989Z,14.35
2022-12-03T02:13:07.815Z,9.73
2022-12-03T02:15:37.088Z,10.95
2022-12-03T02:18:03.846Z,11.98
2022-12-03T02:20:36.893Z,14.75
2022-12-03T02:23:12.107Z,7.80
2022-12-03T02:25:38.956Z,10.07
2022-12-03T02:28:10.734Z,9.82
2022-12-03T02:30:37.757Z,10.10
2022-12-03T02:33:04.906Z,7.68
2022-12-03T02:35:38.079Z,12.32
2022-12-03T02:38:16.588Z,12.13
2022-12-03T02:40:45.923Z,13.18
2022-12-03T02:43:15.053Z,13.35
2022-12-03T02:45:45.678Z,9.55
2022-12-03T02:48:28.883Z,11.35
2022-12-03T02:51:00.405Z,12.05
2022-12-03T02:53:32.825Z,10.77
2022-12-03T02:56:01.756Z,5.43
2022-12-03T02:58:31.003Z,10.05
2022-12-03T03:00:59.562Z,13.38
2022-12-03T03:03:30.185Z,10.00
2022-12-03T03:05:58.040Z,10.02
2022-12-03T03:08:28.284Z,8.70
2022-12-03T03:10:57.823Z,14.07
2022-12-03T03:13:24.726Z,9.35
2022-12-03T03:15:51.500Z,10.95
2022-12-03T03:18:19.297Z,13.80
2022-12-03T03:20:46.214Z,12.73
2022-12-03T03:23:13.101Z,10.43
2022-12-03T03:25:49.846Z,5.70
2022-12-03T03:28:16.916Z,13.57
2022-12-03T03:30:44.403Z,5.65
2022-12-03T03:33:14.400Z,7.30
2022-12-03T03:35:41.930Z,12.27
2022-12-03T03:38:09.851Z,7.57
2022-12-03T03:40:39.773Z,10.98
2022-12-03T03:43:07.247Z,10.93
2022-12-03T03:45:33.945Z,9.93
2022-12-03T03:48:01.245Z,12.02
2022-12-03T03:50:31.499Z,9.73
2022-12-03T03:53:01.325Z,7.45
2022-12-03T03:55:29.080Z,10.60
2022-12-03T03:57:56.094Z,12.90
2022-12-03T04:00:23.077Z,9.88
2022-12-03T04:02:49.740Z,15.80
2022-12-03T04:05:20.282Z,9.27
2022-12-03T04:07:48.394Z,6.75
2022-12-03T04:10:35.905Z,12.38
2022-12-03T04:13:02.687Z,12.77
2022-12-03T04:15:30.783Z,13.90
2022-12-03T04:18:16.184Z,7.63
2022-12-03T04:20:44.234Z,11.82
2022-12-03T04:23:14.215Z,8.52
2022-12-03T04:25:59.729Z,8.93
2022-12-03T04:28:44.719Z,13.80
2022-12-03T04:31:29.754Z,11.10
2022-12-03T04:34:15.024Z,11.18
2022-12-03T04:36:41.679Z,14.10
2022-12-03T04:39:08.385Z,11.60
2022-12-03T04:41:35.023Z,9.38
2022-12-03T04:44:21.684Z,13.52
2022-12-03T04:49:15.124Z,11.20
2022-12-03T04:51:41.758Z,12.88
2022-12-03T04:54:08.443Z,8.38
2022-12-03T04:56:36.060Z,9.70
2022-12-03T04:59:02.740Z,15.73
2022-12-03T05:01:29.447Z,13.73
2022-12-03T05:03:58.178Z,8.18
2022-12-03T05:06:25.239Z,14.43
2022-12-03T05:08:52.132Z,14.40
2022-12-03T05:11:18.729Z,14.13
2022-12-03T05:13:45.411Z,11.05
2022-12-03T05:16:13.676Z,15.73
2022-12-03T05:18:42.464Z,12.82
2022-12-03T05:21:09.078Z,15.25
2022-12-03T05:23:37.030Z,10.55
2022-12-03T05:26:03.653Z,15.45
2022-12-03T05:28:30.526Z,15.05
2022-12-03T05:30:57.230Z,12.93
2022-12-03T05:33:23.989Z,13.63
2022-12-03T05:35:50.796Z,13.48
2022-12-03T05:38:17.454Z,15.43
2022-12-03T05:40:44.358Z,15.05
2022-12-03T05:43:11.061Z,15.25
2022-12-03T05:45:40.499Z,15.48
2022-12-03T05:48:10.082Z,14.90
2022-12-03T05:50:38.854Z,13.65
2022-12-03T05:53:05.768Z,15.05
2022-12-03T05:55:32.404Z,14.18
2022-12-03T05:58:00.256Z,12.15
2022-12-03T06:00:29.688Z,11.48
2022-12-03T06:02:56.912Z,14.50
2022-12-03T06:05:25.636Z,14.60
2022-12-03T06:07:53.404Z,11.07
2022-12-03T06:10:24.730Z,12.38
2022-12-03T06:12:51.598Z,12.73
2022-12-03T06:15:19.323Z,15.10
2022-12-03T06:17:47.818Z,12.93
2022-12-03T06:20:17.476Z,14.73
2022-12-03T06:22:44.674Z,13.35
2022-12-03T06:25:12.890Z,10.85
2022-12-03T06:27:39.579Z,10.00
2022-12-03T06:30:08.651Z,6.32
2022-12-03T06:32:36.237Z,14.23
2022-12-03T06:35:02.885Z,9.20
2022-12-03T06:37:29.533Z,13.90
2022-12-03T06:39:56.159Z,14.75
2022-12-03T06:42:22.805Z,13.18
2022-12-03T06:44:49.444Z,13.52
2022-12-03T06:47:16.052Z,12.07
2022-12-03T06:49:42.763Z,13.35
2022-12-03T06:52:09.457Z,9.40
2022-12-03T06:54:36.100Z,14.00
2022-12-03T06:57:03.868Z,13.30
2022-12-03T06:59:34.261Z,7.47
2022-12-03T07:02:01.325Z,13.20
2022-12-03T07:04:28.312Z,11.57
2022-12-03T07:06:55.048Z,9.20
2022-12-03T07:09:21.717Z,11.40
2022-12-03T07:11:48.363Z,10.88
2022-12-03T07:14:15.235Z,13.02
2022-12-03T07:16:43.612Z,13.27
2022-12-03T07:19:10.661Z,15.55
2022-12-03T07:21:40.478Z,15.73
2022-12-03T07:24:07.467Z,14.68
2022-12-03T07:26:34.627Z,14.15
2022-12-03T07:29:01.330Z,15.00
2022-12-03T07:31:28.125Z,14.70
2022-12-03T07:33:54.741Z,15.50
2022-12-03T07:36:21.370Z,11.52
2022-12-03T07:38:49.949Z,14.02
2022-12-03T07:41:20.459Z,14.40
2022-12-03T07:43:47.161Z,14.68
2022-12-03T07:46:14.975Z,15.40
2022-12-03T07:48:43.082Z,12.55
2022-12-03T07:51:14.267Z,16.42
2022-12-03T07:53:42.199Z,15.18
2022-12-03T07:56:11.538Z,14.40
2022-12-03T07:58:38.198Z,14.38
2022-12-03T08:01:04.959Z,13.77
2022-12-03T08:03:32.015Z,12.85
2022-12-03T08:05:58.615Z,16.20
2022-12-03T08:08:26.750Z,10.52
2022-12-03T08:10:53.540Z,14.60
2022-12-03T08:13:21.307Z,10.02
2022-12-03T08:15:47.965Z,8.43
2022-12-03T08:18:18.016Z,11.07
2022-12-03T08:20:48.134Z,13.20
2022-12-03T08:23:21.036Z,11.60
2022-12-03T08:25:49.318Z,14.95
2022-12-03T08:28:22.090Z,15.70
2022-12-03T08:31:12.587Z,11.52
2022-12-03T08:33:40.821Z,14.85
2022-12-03T08:36:19.373Z,12.95
2022-12-03T08:38:51.146Z,14.40
2022-12-03T08:41:40.975Z,14.50
2022-12-03T08:44:32.575Z,12.13
2022-12-03T08:47:22.470Z,14.40
2022-12-03T08:49:56.108Z,6.13
2022-12-03T08:52:32.566Z,12.98
2022-12-03T08:55:03.285Z,9.40
2022-12-03T08:57:32.749Z,12.43
2022-12-03T08:59:59.529Z,14.45
2022-12-03T09:02:33.508Z,16.08
2022-12-03T09:05:16.413Z,13.05
2022-12-03T09:07:43.139Z,14.15
2022-12-03T09:10:10.015Z,18.13
2022-12-03T09:12:36.796Z,12.88
2022-12-03T09:15:03.808Z,16.20
2022-12-03T09:17:30.367Z,9.80
2022-12-03T09:19:57.050Z,15.02
2022-12-03T09:22:23.716Z,12.40
2022-12-03T09:24:50.359Z,11.80
2022-12-03T09:27:17.014Z,12.18
2022-12-03T09:29:43.638Z,14.45
2022-12-03T09:32:15.097Z,17.52
2022-12-03T09:34:47.223Z,16.17
2022-12-03T09:37:13.867Z,8.98
2022-12-03T09:39:40.518Z,17.92
2022-12-03T09:42:07.528Z,15.50
2022-12-03T09:44:34.967Z,16.02
2022-12-03T09:47:04.796Z,16.70
2022-12-03T09:49:35.914Z,18.52
2022-12-03T09:52:05.040Z,15.45
2022-12-03T09:54:32.797Z,17.25
2022-12-03T09:57:02.710Z,16.13
2022-12-03T09:59:34.900Z,16.25
2022-12-03T10:02:02.952Z,17.02
2022-12-03T10:04:30.573Z,11.90
2022-12-03T10:06:58.976Z,16.25
2022-12-03T10:09:28.574Z,13.38
2022-12-03T10:11:59.975Z,17.08
2022-12-03T10:28:00.783Z,18.48
2022-12-03T10:33:17.311Z,18.85
2022-12-03T10:35:45.573Z,11.95
2022-12-03T10:38:17.870Z,17.80
2022-12-03T10:40:45.208Z,13.88
2022-12-03T10:45:51.509Z,17.50
2022-12-03T10:48:27.632Z,15.27
2022-12-03T10:53:32.982Z,10.75
2022-12-03T10:56:02.994Z,14.73
2022-12-03T10:58:32.038Z,18.00
2022-12-03T11:01:01.047Z,18.95
2022-12-03T11:03:30.603Z,19.13
2022-12-03T11:06:00.333Z,16.75
2022-12-03T11:08:29.382Z,14.18
2022-12-03T11:11:07.378Z,18.38
2022-12-03T11:13:33.863Z,15.60
2022-12-03T11:16:02.139Z,15.40
2022-12-03T11:18:34.720Z,19.08
2022-12-03T11:21:05.502Z,17.00
2022-12-03T11:23:44.239Z,17.05
2022-12-03T11:26:19.990Z,20.13
2022-12-03T11:28:46.660Z,17.13
2022-12-03T11:31:48.243Z,20.00
2022-12-03T11:34:20.902Z,17.67
2022-12-03T11:37:13.535Z,18.95
2022-12-03T11:39:52.950Z,17.27
2022-12-03T11:42:28.706Z,16.73
2022-12-03T11:45:04.169Z,17.77
2022-12-03T11:47:42.573Z,18.80
2022-12-03T11:50:39.705Z,17.45
2022-12-03T11:53:16.545Z,13.82
2022-12-03T11:55:49.055Z,15.82
2022-12-03T11:58:29.208Z,11.23
2022-12-03T12:00:59.080Z,18.58
2022-12-03T12:03:33.910Z,12.88
2022-12-03T12:06:05.506Z,14.07
2022-12-03T12:08:33.982Z,16.42
2022-12-03T12:11:01.196Z,19.55
2022-12-03T12:13:48.017Z,18.38
2022-12-03T12:16:37.646Z,15.80
2022-12-03T12:19:43.310Z,17.70
2022-12-03T12:22:20.320Z,19.92
2022-12-03T12:24:51.953Z,18.92
2022-12-03T12:27:32.145Z,16.80
2022-12-03T12:30:01.400Z,16.17
2022-12-03T12:32:35.284Z,19.35
2022-12-03T12:35:21.770Z,19.42
2022-12-03T12:38:06.748Z,17.60
2022-12-03T12:40:35.986Z,18.05
2022-12-03T12:43:10.253Z,18.38
2022-12-03T12:45:41.927Z,15.32
2022-12-03T12:48:25.877Z,18.17
2022-12-03T12:51:01.392Z,18.38
2022-12-03T12:53:32.975Z,18.65
2022-12-03T12:56:16.237Z,19.40
2022-12-03T12:58:42.997Z,18.73
2022-12-03T13:01:20.569Z,19.38
2022-12-03T13:03:50.668Z,18.40
2022-12-03T13:06:17.859Z,19.83
2022-12-03T13:08:47.268Z,19.35
2022-12-03T13:11:30.166Z,19.25
2022-12-03T13:13:56.749Z,17.23
2022-12-03T13:16:29.058Z,19.27
2022-12-03T13:18:57.666Z,20.80
2022-12-03T13:21:40.498Z,19.67
2022-12-03T13:24:32.377Z,19.25
2022-12-03T13:27:08.069Z,19.05
2022-12-03T13:29:36.262Z,18.75
2022-12-03T13:32:11.767Z,20.05
2022-12-03T13:34:38.491Z,15.43
2022-12-03T13:37:23.320Z,20.27
2022-12-03T13:39:52.675Z,19.63
2022-12-03T13:42:41.573Z,16.50
2022-12-03T13:45:13.958Z,19.25
2022-12-03T13:47:42.233Z,19.38
2022-12-03T13:50:34.472Z,21.05
2022-12-03T13:53:03.424Z,21.00
2022-12-03T13:55:31.947Z,16.13
2022-12-03T13:57:59.115Z,18.25
2022-12-03T14:00:25.942Z,16.23
2022-12-03T14:02:52.746Z,21.15
2022-12-03T14:05:19.548Z,21.00
2022-12-03T14:07:47.635Z,18.88
2022-12-03T14:10:14.403Z,19.77
2022-12-03T14:12:41.017Z,18.35
2022-12-03T14:15:11.776Z,19.08
2022-12-03T14:17:39.439Z,19.05
2022-12-03T14:20:08.287Z,12.65
2022-12-03T14:22:38.025Z,16.23
2022-12-03T14:25:06.040Z,12.77
2022-12-03T14:27:32.689Z,19.80
2022-12-03T14:29:59.878Z,17.10
2022-12-03T14:32:26.626Z,18.95
2022-12-03T14:34:53.342Z,15.38
2022-12-03T14:37:20.197Z,18.75
2022-12-03T14:39:46.856Z,15.77
2022-12-03T14:42:14.550Z,18.90
2022-12-03T14:44:52.058Z,17.35
2022-12-03T14:47:22.701Z,23.25
2022-12-03T14:49:50.647Z,17.33
2022-12-03T14:52:18.349Z,14.15
2022-12-03T14:54:45.240Z,9.65
2022-12-03T14:57:13.782Z,12.82
2022-12-03T14:59:44.426Z,21.70
2022-12-03T15:02:13.172Z,21.58
2022-12-03T15:04:41.061Z,16.45
2022-12-03T15:07:08.367Z,11.70
2022-12-03T15:09:35.508Z,17.20
2022-12-03T15:12:02.149Z,10.60
2022-12-03T15:14:31.144Z,22.08
2022-12-03T15:16:57.955Z,16.75
2022-12-03T15:19:24.751Z,13.63
2022-12-03T15:21:51.345Z,10.55
2022-12-03T15:24:17.969Z,15.63
2022-12-03T15:26:45.970Z,15.30
2022-12-03T15:29:12.615Z,20.48
2022-12-03T15:31:39.288Z,23.13
2022-12-03T15:34:06.012Z,21.65
2022-12-03T15:36:32.785Z,15.15
2022-12-03T15:38:59.474Z,19.70
2022-12-03T15:41:29.727Z,15.38
2022-12-03T15:43:58.621Z,22.88
2022-12-03T15:46:27.843Z,20.00
2022-12-03T15:48:55.682Z,20.75
2022-12-03T15:51:24.139Z,23.08
2022-12-03T15:53:51.150Z,9.23
2022-12-03T15:56:17.967Z,25.35
2022-12-03T15:58:44.916Z,25.50
2022-12-03T16:01:14.806Z,12.05
2022-12-03T16:03:41.977Z,13.80
2022-12-03T16:06:09.202Z,23.05
2022-12-03T16:08:35.990Z,21.13
2022-12-03T16:11:02.645Z,18.40
2022-12-03T16:13:30.673Z,24.10
2022-12-03T16:15:57.337Z,25.52
2022-12-03T16:18:24.280Z,23.52
2022-12-03T16:20:52.350Z,27.90
2022-12-03T16:23:19.100Z,26.88
2022-12-03T16:25:45.716Z,28.58
2022-12-03T16:28:12.332Z,21.95
2022-12-03T16:30:39.783Z,25.20
2022-12-03T16:33:06.978Z,24.35
2022-12-03T16:35:34.736Z,18.83
2022-12-03T16:38:01.442Z,24.52
2022-12-03T16:40:28.062Z,14.95
2022-12-03T16:42:54.621Z,19.67
2022-12-03T16:45:29.887Z,14.57
2022-12-03T16:47:57.869Z,14.80
2022-12-03T16:50:29.982Z,27.00
2022-12-03T16:52:57.720Z,15.98
2022-12-03T16:55:24.927Z,24.27
2022-12-03T16:57:52.922Z,20.50
2022-12-03T17:00:23.201Z,11.75
2022-12-03T17:02:49.883Z,21.23
2022-12-03T17:05:18.134Z,27.50
2022-12-03T17:07:44.927Z,18.92
2022-12-03T17:10:11.723Z,19.77
2022-12-03T17:13:07.573Z,19.42
2022-12-03T17:20:18.813Z,15.27
2022-12-03T17:22:45.778Z,24.85
2022-12-03T17:25:12.457Z,24.33
2022-12-03T17:27:45.029Z,23.20
2022-12-03T17:30:12.885Z,20.33
2022-12-03T17:32:39.889Z,19.23
2022-12-03T17:35:07.206Z,15.60
2022-12-03T17:37:34.926Z,27.23
2022-12-03T17:40:02.040Z,29.77
2022-12-03T17:42:28.639Z,25.65
2022-12-03T17:44:55.218Z,14.57
2022-12-03T17:47:21.853Z,27.50
2022-12-03T17:49:49.114Z,25.48
2022-12-03T17:55:27.855Z,20.30
2022-12-03T18:00:33.726Z,29.13
2022-12-03T18:03:04.451Z,28.42
2022-12-03T18:05:33.141Z,29.83
2022-12-03T18:07:59.861Z,19.55
2022-12-03T18:10:31.974Z,31.67
2022-12-03T18:13:02.017Z,31.48
2022-12-03T18:15:29.717Z,32.58
2022-12-03T18:17:56.340Z,32.03
2022-12-03T18:20:22.987Z,32.10
2022-12-03T18:22:49.904Z,31.70
2022-12-03T18:25:18.237Z,31.75
2022-12-03T18:27:47.224Z,28.30
2022-12-03T18:30:14.205Z,32.03
2022-12-03T18:32:40.946Z,31.40
2022-12-03T18:35:07.897Z,30.00
2022-12-03T18:37:34.881Z,25.85
2022-12-03T18:40:12.073Z,30.00
2022-12-03T18:42:39.564Z,25.02
2022-12-03T18:45:07.209Z,35.83
2022-12-03T18:47:33.981Z,29.52
2022-12-03T18:50:00.875Z,32.15
2022-12-03T18:52:27.594Z,33.30
2022-12-03T18:54:55.469Z,22.83
2022-12-03T18:57:22.221Z,23.33
2022-12-03T18:59:49.042Z,27.60
2022-12-03T19:02:53.798Z,23.58
2022-12-03T19:05:09.304Z,16.58
2022-12-03T19:07:38.269Z,20.85
2022-12-03T19:10:05.560Z,14.95
2022-12-03T19:12:32.963Z,18.75
2022-12-03T19:14:59.623Z,21.17
2022-12-03T19:17:27.440Z,23.10
2022-12-03T19:19:55.475Z,24.55
2022-12-03T19:22:23.271Z,16.88
2022-12-03T19:24:52.190Z,20.67
2022-12-03T19:27:19.116Z,17.60
2022-12-03T19:29:50.898Z,30.83
2022-12-03T19:32:17.521Z,22.55
2022-12-03T19:34:45.841Z,29.05
2022-12-03T19:37:12.645Z,23.08
2022-12-03T19:39:39.663Z,25.30
2022-12-03T19:42:08.601Z,27.05
2022-12-03T19:44:35.509Z,25.20
2022-12-03T19:47:02.147Z,29.13
2022-12-03T19:49:30.060Z,21.73
2022-12-03T19:51:58.175Z,22.85
2022-12-03T19:54:25.317Z,20.52
2022-12-03T19:56:52.089Z,27.55
2022-12-03T19:59:18.880Z,24.42
2022-12-03T20:01:45.719Z,29.85
2022-12-03T20:04:12.854Z,27.95
2022-12-03T20:06:47.672Z,25.85
2022-12-03T20:09:20.082Z,25.77
2022-12-03T20:11:46.745Z,24.10
2022-12-03T20:14:15.521Z,24.75
2022-12-03T20:16:44.309Z,25.92
2022-12-03T20:19:15.019Z,25.65
2022-12-03T20:21:42.058Z,24.85
2022-12-03T20:24:15.094Z,26.98
2022-12-03T20:26:42.146Z,26.25
2022-12-03T20:29:08.767Z,26.85
2022-12-03T20:31:37.005Z,28.02
2022-12-03T20:34:04.284Z,26.48
2022-12-03T20:36:32.496Z,27.67
2022-12-03T20:39:02.779Z,22.35
2022-12-03T20:41:30.813Z,27.58
2022-12-03T20:43:57.523Z,25.23
2022-12-03T20:46:31.194Z,27.58
2022-12-03T20:49:01.320Z,27.25
2022-12-03T20:51:30.185Z,29.05
2022-12-03T20:53:59.738Z,24.95
2022-12-03T20:56:35.150Z,27.90
2022-12-03T20:59:07.628Z,30.20
2022-12-03T21:01:38.554Z,30.55
2022-12-03T21:04:06.633Z,29.77
2022-12-03T21:06:36.047Z,29.80
2022-12-03T21:09:05.570Z,29.23
2022-12-03T21:11:34.060Z,29.17
2022-12-03T21:14:00.994Z,27.95
2022-12-03T21:17:05.806Z,28.88
2022-12-03T21:19:22.467Z,25.42
2022-12-03T21:21:49.260Z,24.48
2022-12-03T21:24:16.294Z,23.55
2022-12-03T21:26:42.924Z,26.67
2022-12-03T21:29:09.775Z,28.33
2022-12-03T21:31:37.985Z,28.00
2022-12-03T21:34:05.252Z,24.45
2022-12-03T21:36:32.441Z,15.98
2022-12-03T21:38:59.181Z,28.98
2022-12-03T21:41:26.217Z,26.48
2022-12-03T21:43:52.910Z,23.20
2022-12-03T21:47:09.454Z,28.20
2022-12-03T21:51:32.843Z,28.75
2022-12-03T21:54:00.072Z,29.08
2022-12-03T21:56:26.988Z,27.42
2022-12-03T21:58:53.570Z,26.88
2022-12-03T22:01:26.975Z,29.42
2022-12-03T22:03:53.690Z,29.42
2022-12-03T22:06:20.506Z,27.08
2022-12-03T22:08:47.413Z,28.63
2022-12-03T22:11:22.192Z,27.92
2022-12-03T22:13:49.363Z,25.00
2022-12-03T22:16:20.102Z,27.73
2022-12-03T22:18:47.433Z,25.20
2022-12-03T22:21:17.072Z,25.63
2022-12-03T22:23:43.967Z,27.98
2022-12-03T22:26:27.965Z,27.50
2022-12-03T22:28:54.664Z,26.30
2022-12-03T22:31:21.424Z,23.60
2022-12-03T22:33:50.116Z,21.20
2022-12-03T22:36:21.458Z,19.98
2022-12-03T22:38:49.224Z,20.92
2022-12-03T22:41:16.196Z,26.67
2022-12-03T22:43:43.455Z,24.00
2022-12-03T22:46:12.916Z,19.20
2022-12-03T22:48:41.090Z,23.38
2022-12-03T22:51:17.806Z,21.30
2022-12-03T22:53:44.584Z,20.13
2022-12-03T22:56:11.860Z,19.60
2022-12-03T22:58:39.728Z,25.08
2022-12-03T23:01:06.774Z,22.45
2022-12-03T23:03:33.871Z,21.58
2022-12-03T23:06:00.774Z,21.80
2022-12-03T23:08:29.283Z,24.17
2022-12-03T23:11:00.789Z,17.73
2022-12-03T23:13:27.509Z,27.92
2022-12-03T23:15:54.247Z,28.80
2022-12-03T23:18:21.373Z,26.73
2022-12-03T23:20:52.587Z,28.65
2022-12-03T23:23:20.870Z,23.92
2022-12-03T23:26:18.801Z,21.45
2022-12-03T23:28:47.426Z,24.02
2022-12-03T23:31:41.727Z,13.20
2022-12-03T23:34:08.484Z,22.33
2022-12-03T23:36:35.257Z,23.50
2022-12-03T23:39:02.025Z,25.40
2022-12-03T23:44:10.262Z,24.73
2022-12-03T23:46:39.724Z,18.08
2022-12-03T23:49:06.435Z,14.77
2022-12-03T23:54:04.873Z,16.65
2022-12-03T23:56:31.617Z,15.10
2022-12-03T23:58:58.983Z,27.58
